createdAt,value
2019-04-13T00:01:17.977Z,10.00
2019-04-13T00:03:46.613Z,11.57
2019-04-13T00:06:16.780Z,9.60
2019-04-13T00:08:45.821Z,12.23
2019-04-13T00:11:24.635Z,10.97
2019-04-13T00:13:53.823Z,10.30
2019-04-13T00:16:24.326Z,10.17
2019-04-13T00:18:53.323Z,9.53
2019-04-13T00:21:21.932Z,12.77
2019-04-13T00:23:50.578Z,9.17
2019-04-13T00:26:19.151Z,11.00
2019-04-13T00:28:48.081Z,12.13
2019-04-13T00:31:17.106Z,10.67
2019-04-13T00:33:46.080Z,11.77
2019-04-13T00:36:14.561Z,12.30
2019-04-13T00:38:43.184Z,12.93
2019-04-13T00:41:12.073Z,12.13
2019-04-13T00:43:40.649Z,11.20
2019-04-13T00:46:09.297Z,13.17
2019-04-13T00:48:37.966Z,11.33
2019-04-13T00:51:06.494Z,12.37
2019-04-13T00:53:35.523Z,10.30
2019-04-13T00:56:04.561Z,10.20
2019-04-13T00:58:33.493Z,13.87
2019-04-13T01:01:02.071Z,10.07
2019-04-13T01:03:31.012Z,11.47
2019-04-13T01:05:59.554Z,10.00
2019-04-13T01:08:28.502Z,13.27
2019-04-13T01:10:57.475Z,12.07
2019-04-13T01:13:26.450Z,11.20
2019-04-13T01:15:54.968Z,11.63
2019-04-13T01:18:23.669Z,14.30
2019-04-13T01:20:52.605Z,13.80
2019-04-13T01:23:21.598Z,13.63
2019-04-13T01:25:50.508Z,13.50
2019-04-13T01:28:19.141Z,13.60
2019-04-13T01:30:47.730Z,14.40
2019-04-13T01:33:16.649Z,14.57
2019-04-13T01:35:45.494Z,14.13
2019-04-13T01:38:14.418Z,13.77
2019-04-13T01:40:43.873Z,14.23
2019-04-13T01:43:12.781Z,12.27
2019-04-13T01:45:41.404Z,14.40
2019-04-13T01:48:10.365Z,13.87
2019-04-13T01:50:39.407Z,15.40
2019-04-13T01:53:08.157Z,15.43
2019-04-13T01:55:36.705Z,14.83
2019-04-13T01:58:05.338Z,11.97
2019-04-13T02:00:53.786Z,12.80
2019-04-13T02:03:23.059Z,14.10
2019-04-13T02:05:53.261Z,15.03
2019-04-13T02:08:29.317Z,14.63
2019-04-13T02:10:59.962Z,11.43
2019-04-13T02:13:28.908Z,10.70
2019-04-13T02:15:57.939Z,14.07
2019-04-13T02:18:26.554Z,14.57
2019-04-13T02:20:55.313Z,14.20
2019-04-13T02:23:23.867Z,13.17
2019-04-13T02:25:52.505Z,13.23
2019-04-13T02:28:21.193Z,12.67
2019-04-13T02:30:49.740Z,14.00
2019-04-13T02:33:21.512Z,13.10
2019-04-13T02:35:48.894Z,12.40
2019-04-13T02:38:17.588Z,13.23
2019-04-13T02:40:46.267Z,14.93
2019-04-13T02:43:15.218Z,14.43
2019-04-13T02:45:43.820Z,16.80
2019-04-13T02:48:12.845Z,14.17
2019-04-13T02:50:41.525Z,23.33
2019-04-13T02:53:10.424Z,18.43
2019-04-13T02:55:39.378Z,14.90
2019-04-13T02:58:08.215Z,15.63
2019-04-13T03:00:37.224Z,14.83
2019-04-13T03:03:06.351Z,16.63
2019-04-13T03:05:46.444Z,16.37
2019-04-13T03:08:05.867Z,16.60
2019-04-13T03:10:34.454Z,17.17
2019-04-13T03:13:03.538Z,14.83
2019-04-13T03:15:34.294Z,17.80
2019-04-13T03:18:07.041Z,18.67
2019-04-13T03:20:35.623Z,17.53
2019-04-13T03:23:04.572Z,19.00
2019-04-13T03:25:33.576Z,22.10
2019-04-13T03:28:02.194Z,18.50
2019-04-13T03:30:32.741Z,18.50
2019-04-13T03:33:01.358Z,17.33
2019-04-13T03:35:29.947Z,21.97
2019-04-13T03:37:58.532Z,20.17
2019-04-13T03:40:27.132Z,19.60
2019-04-13T03:42:56.015Z,21.13
2019-04-13T03:45:24.635Z,20.20
2019-04-13T03:47:53.610Z,21.03
2019-04-13T03:50:22.617Z,19.33
2019-04-13T03:52:51.192Z,17.70
2019-04-13T03:55:20.182Z,19.40
2019-04-13T03:57:48.849Z,20.73
2019-04-13T04:00:17.527Z,23.43
2019-04-13T04:02:46.078Z,24.43
2019-04-13T04:05:14.673Z,25.40
2019-04-13T04:07:43.178Z,20.90
2019-04-13T04:10:12.373Z,18.60
2019-04-13T04:12:40.978Z,20.60
2019-04-13T04:15:10.466Z,18.90
2019-04-13T04:17:39.043Z,21.40
2019-04-13T04:20:08.313Z,17.83
2019-04-13T04:22:37.027Z,19.97
2019-04-13T04:25:05.973Z,20.60
2019-04-13T04:27:34.906Z,22.07
2019-04-13T04:30:04.736Z,22.57
2019-04-13T04:32:33.314Z,23.17
2019-04-13T04:35:02.327Z,20.37
2019-04-13T04:37:31.268Z,18.07
2019-04-13T04:39:59.782Z,18.10
2019-04-13T04:42:28.365Z,18.33
2019-04-13T04:44:57.027Z,18.23
2019-04-13T04:47:25.635Z,23.43
2019-04-13T04:49:54.581Z,21.10
2019-04-13T04:52:23.659Z,19.07
2019-04-13T04:54:52.677Z,20.27
2019-04-13T04:57:21.287Z,20.87
2019-04-13T04:59:50.277Z,21.30
2019-04-13T05:02:19.195Z,18.13
2019-04-13T05:04:47.898Z,20.13
2019-04-13T05:07:16.919Z,16.60
2019-04-13T05:09:45.516Z,20.93
2019-04-13T05:12:14.485Z,18.43
2019-04-13T05:14:43.115Z,23.10
2019-04-13T05:17:11.730Z,20.67
2019-04-13T05:19:40.254Z,18.60
2019-04-13T05:22:09.258Z,17.93
2019-04-13T05:24:38.075Z,20.07
2019-04-13T05:27:06.601Z,17.60
2019-04-13T05:29:35.528Z,20.10
2019-04-13T05:32:04.197Z,23.23
2019-04-13T05:34:33.137Z,20.50
2019-04-13T05:37:01.734Z,17.80
2019-04-13T05:39:30.621Z,18.20
2019-04-13T05:41:59.555Z,19.00
2019-04-13T05:44:28.499Z,21.00
2019-04-13T05:46:57.659Z,19.67
2019-04-13T05:49:26.627Z,18.60
2019-04-13T05:51:55.639Z,19.23
2019-04-13T05:54:24.275Z,19.93
2019-04-13T05:56:52.857Z,19.37
2019-04-13T05:59:21.459Z,17.17
2019-04-13T06:01:50.080Z,20.10
2019-04-13T06:04:18.748Z,19.47
2019-04-13T06:06:48.218Z,17.90
2019-04-13T06:09:18.028Z,19.73
2019-04-13T06:11:47.016Z,21.77
2019-04-13T06:14:15.889Z,19.60
2019-04-13T06:16:44.529Z,18.90
2019-04-13T06:19:13.498Z,20.47
2019-04-13T06:21:44.789Z,17.70
2019-04-13T06:24:13.173Z,20.63
2019-04-13T06:26:41.990Z,16.60
2019-04-13T06:29:10.945Z,18.83
2019-04-13T06:31:41.252Z,18.80
2019-04-13T06:34:20.638Z,18.60
2019-04-13T06:36:49.220Z,17.83
2019-04-13T06:39:17.838Z,18.60
2019-04-13T06:41:48.110Z,19.50
2019-04-13T06:44:17.234Z,17.90
2019-04-13T06:46:46.220Z,18.33
2019-04-13T06:49:19.423Z,19.10
2019-04-13T06:51:45.468Z,20.23
2019-04-13T06:54:14.003Z,27.00
2019-04-13T06:56:42.658Z,18.93
2019-04-13T06:59:11.279Z,18.43
2019-04-13T07:01:39.913Z,19.77
2019-04-13T07:04:09.015Z,16.80
2019-04-13T07:06:47.148Z,20.73
2019-04-13T07:09:26.057Z,14.23
2019-04-13T07:11:56.209Z,15.80
2019-04-13T07:14:25.294Z,15.17
2019-04-13T07:17:01.664Z,16.80
2019-04-13T07:19:30.092Z,17.70
2019-04-13T07:21:58.617Z,14.77
2019-04-13T07:24:28.844Z,12.17
2019-04-13T07:26:58.094Z,15.30
2019-04-13T07:29:27.039Z,13.87
2019-04-13T07:31:55.994Z,13.80
2019-04-13T07:34:24.553Z,15.90
2019-04-13T07:36:53.528Z,14.83
2019-04-13T07:39:22.351Z,16.13
2019-04-13T07:41:51.430Z,20.27
2019-04-13T07:44:21.732Z,15.60
2019-04-13T07:46:57.865Z,15.40
2019-04-13T07:49:33.540Z,18.13
2019-04-13T07:52:12.545Z,18.00
2019-04-13T07:54:45.123Z,18.07
2019-04-13T07:57:11.216Z,14.43
2019-04-13T07:59:39.759Z,15.13
2019-04-13T08:02:08.361Z,13.47
2019-04-13T08:04:37.097Z,16.17
2019-04-13T08:07:06.420Z,13.33
2019-04-13T08:09:35.587Z,13.90
2019-04-13T08:12:04.357Z,13.00
2019-04-13T08:14:34.238Z,15.67
2019-04-13T08:17:42.247Z,13.97
2019-04-13T08:20:12.406Z,12.00
2019-04-13T08:22:40.916Z,11.40
2019-04-13T08:25:09.460Z,12.10
2019-04-13T08:27:38.056Z,12.50
2019-04-13T08:30:08.116Z,12.13
2019-04-13T08:32:36.683Z,12.87
2019-04-13T08:35:05.373Z,13.60
2019-04-13T08:37:37.766Z,15.20
2019-04-13T08:40:06.416Z,17.93
2019-04-13T08:42:35.231Z,16.83
2019-04-13T08:45:04.399Z,18.33
2019-04-13T08:47:32.952Z,21.13
2019-04-13T08:50:01.571Z,18.70
2019-04-13T08:52:30.189Z,17.40
2019-04-13T08:54:58.984Z,19.37
2019-04-13T08:57:27.488Z,16.73
2019-04-13T08:59:55.959Z,17.47
2019-04-13T09:02:24.439Z,22.87
2019-04-13T09:04:53.301Z,14.40
2019-04-13T09:07:22.076Z,18.10
2019-04-13T09:09:50.876Z,18.00
2019-04-13T09:12:20.482Z,14.67
2019-04-13T09:14:51.557Z,18.23
2019-04-13T09:17:20.480Z,17.43
2019-04-13T09:19:59.449Z,16.97
2019-04-13T09:22:28.372Z,16.93
2019-04-13T09:24:57.223Z,13.53
2019-04-13T09:27:26.015Z,16.40
2019-04-13T09:29:55.805Z,15.27
2019-04-13T09:32:24.342Z,14.93
2019-04-13T09:34:53.226Z,14.70
2019-04-13T09:37:22.088Z,13.43
2019-04-13T09:39:51.575Z,16.03
2019-04-13T09:42:21.157Z,10.43
2019-04-13T09:44:50.007Z,12.97
2019-04-13T09:47:20.556Z,13.67
2019-04-13T09:49:49.742Z,14.77
2019-04-13T09:52:18.301Z,11.90
2019-04-13T09:54:46.907Z,17.80
2019-04-13T09:57:15.744Z,15.17
2019-04-13T09:59:44.583Z,18.90
2019-04-13T10:02:15.037Z,15.77
2019-04-13T10:04:43.642Z,16.40
2019-04-13T10:07:12.186Z,13.80
2019-04-13T10:09:42.178Z,19.00
2019-04-13T10:12:15.602Z,16.97
2019-04-13T10:14:54.272Z,17.63
2019-04-13T10:17:24.427Z,12.70
2019-04-13T10:19:53.302Z,15.70
2019-04-13T10:22:24.475Z,12.50
2019-04-13T10:24:52.383Z,13.17
2019-04-13T10:27:20.922Z,14.63
2019-04-13T10:29:50.456Z,14.73
2019-04-13T10:32:19.228Z,13.33
2019-04-13T10:34:47.758Z,14.70
2019-04-13T10:37:16.624Z,15.20
2019-04-13T10:39:46.579Z,12.53
2019-04-13T10:42:15.493Z,12.90
2019-04-13T10:44:52.040Z,15.50
2019-04-13T10:47:27.996Z,17.03
2019-04-13T10:50:11.920Z,11.70
2019-04-13T10:52:40.777Z,13.03
2019-04-13T10:55:09.385Z,12.77
2019-04-13T10:57:37.940Z,13.57
2019-04-13T11:00:09.304Z,16.10
2019-04-13T11:02:37.859Z,14.67
2019-04-13T11:05:07.732Z,12.70
2019-04-13T11:07:36.628Z,12.70
2019-04-13T11:10:06.380Z,10.40
2019-04-13T11:12:34.923Z,13.90
2019-04-13T11:15:03.987Z,11.83
2019-04-13T11:17:32.998Z,14.67
2019-04-13T11:20:01.805Z,16.97
2019-04-13T11:22:30.828Z,17.23
2019-04-13T11:24:59.408Z,14.87
2019-04-13T11:27:28.026Z,15.63
2019-04-13T11:29:56.532Z,12.00
2019-04-13T11:32:25.121Z,9.97
2019-04-13T11:34:53.694Z,11.20
2019-04-13T11:37:22.699Z,9.40
2019-04-13T11:39:51.381Z,11.03
2019-04-13T11:42:37.953Z,13.27
2019-04-13T11:45:22.938Z,10.83
2019-04-13T11:48:05.841Z,6.27
2019-04-13T11:50:35.993Z,7.53
2019-04-13T11:53:04.900Z,4.67
2019-04-13T11:55:34.705Z,3.40
2019-04-13T11:58:03.658Z,4.50
2019-04-13T12:00:34.333Z,6.90
2019-04-13T12:03:04.503Z,4.43
2019-04-13T12:05:35.079Z,4.63
2019-04-13T12:08:05.685Z,6.17
2019-04-13T12:10:54.215Z,7.27
2019-04-13T12:13:27.386Z,4.80
2019-04-13T12:16:03.569Z,5.50
2019-04-13T12:18:33.771Z,6.00
2019-04-13T12:21:21.606Z,6.33
2019-04-13T12:23:51.873Z,4.30
2019-04-13T12:26:20.848Z,5.03
2019-04-13T12:28:52.018Z,5.67
2019-04-13T12:31:22.170Z,6.20
2019-04-13T12:33:50.674Z,5.80
2019-04-13T12:36:21.693Z,7.07
2019-04-13T12:38:52.952Z,6.43
2019-04-13T12:41:25.098Z,6.90
2019-04-13T12:43:53.661Z,7.23
2019-04-13T12:46:25.427Z,8.60
2019-04-13T12:48:54.290Z,10.07
2019-04-13T12:51:22.809Z,25.97
2019-04-13T12:53:51.735Z,9.23
2019-04-13T12:56:21.671Z,10.30
2019-04-13T12:58:50.175Z,10.77
2019-04-13T13:01:20.405Z,8.57
2019-04-13T13:03:49.245Z,10.53
2019-04-13T13:06:18.191Z,7.23
2019-04-13T13:08:47.077Z,10.20
2019-04-13T13:11:15.685Z,9.10
2019-04-13T13:13:44.240Z,7.83
2019-04-13T13:16:15.855Z,8.87
2019-04-13T13:18:43.401Z,8.63
2019-04-13T13:21:11.976Z,7.67
2019-04-13T13:23:40.547Z,10.90
2019-04-13T13:26:09.010Z,7.60
2019-04-13T13:28:37.495Z,8.10
2019-04-13T13:31:06.023Z,6.77
2019-04-13T13:33:34.882Z,7.20
2019-04-13T13:36:03.505Z,9.07
2019-04-13T13:38:32.489Z,9.90
2019-04-13T13:41:01.339Z,8.83
2019-04-13T13:43:29.826Z,8.07
2019-04-13T13:45:58.637Z,6.60
2019-04-13T13:48:27.540Z,6.97
2019-04-13T13:50:56.362Z,6.50
2019-04-13T13:53:24.907Z,5.27
2019-04-13T13:55:53.792Z,6.17
2019-04-13T13:58:24.119Z,7.07
2019-04-13T14:00:54.283Z,5.80
2019-04-13T14:03:23.209Z,5.90
2019-04-13T14:05:52.075Z,7.33
2019-04-13T14:08:20.558Z,7.30
2019-04-13T14:10:49.085Z,6.23
2019-04-13T14:13:18.015Z,7.37
2019-04-13T14:15:46.682Z,7.40
2019-04-13T14:18:15.262Z,7.33
2019-04-13T14:20:44.141Z,8.30
2019-04-13T14:23:12.687Z,6.67
2019-04-13T14:25:41.607Z,9.27
2019-04-13T14:28:10.556Z,9.97
2019-04-13T14:30:39.419Z,16.30
2019-04-13T14:33:08.007Z,11.00
2019-04-13T14:35:36.933Z,10.83
2019-04-13T14:38:05.516Z,12.67
2019-04-13T14:40:36.428Z,14.57
2019-04-13T14:43:04.666Z,12.90
2019-04-13T14:45:33.179Z,13.13
2019-04-13T14:48:04.232Z,16.03
2019-04-13T14:50:35.904Z,15.20
2019-04-13T14:53:02.894Z,13.23
2019-04-13T14:55:31.374Z,13.53
2019-04-13T14:57:59.900Z,14.73
2019-04-13T15:00:28.714Z,13.40
2019-04-13T15:02:57.354Z,12.77
2019-04-13T15:05:28.773Z,16.07
2019-04-13T15:07:56.644Z,13.00
2019-04-13T15:10:25.694Z,12.87
2019-04-13T15:12:54.974Z,13.33
2019-04-13T15:15:24.414Z,14.20
2019-04-13T15:17:55.750Z,13.70
2019-04-13T15:20:26.952Z,13.53
2019-04-13T15:22:57.324Z,12.20
2019-04-13T15:25:25.126Z,13.53
2019-04-13T15:27:57.995Z,16.60
2019-04-13T15:30:25.071Z,13.67
2019-04-13T15:32:53.987Z,13.77
2019-04-13T15:35:23.682Z,16.93
2019-04-13T15:37:53.994Z,14.77
2019-04-13T15:40:25.336Z,18.00
2019-04-13T15:42:59.734Z,14.07
2019-04-13T15:45:23.282Z,22.20
2019-04-13T15:47:51.770Z,23.63
2019-04-13T15:50:21.324Z,20.03
2019-04-13T15:52:51.115Z,16.53
2019-04-13T15:55:20.708Z,26.37
2019-04-13T15:57:49.585Z,34.90
2019-04-13T16:00:18.886Z,24.13
2019-04-13T16:02:47.862Z,19.57
2019-04-13T16:05:17.562Z,20.00
2019-04-13T16:07:46.420Z,18.20
2019-04-13T16:10:18.986Z,21.37
2019-04-13T16:12:49.421Z,22.80
2019-04-13T16:15:20.738Z,23.17
2019-04-13T16:17:49.659Z,19.57
2019-04-13T16:20:18.447Z,19.47
2019-04-13T16:22:47.316Z,21.80
2019-04-13T16:25:16.403Z,21.90
2019-04-13T16:27:46.971Z,23.10
2019-04-13T16:30:34.757Z,19.47
2019-04-13T16:33:21.574Z,21.97
2019-04-13T16:35:52.167Z,20.60
2019-04-13T16:38:20.741Z,21.40
2019-04-13T16:40:50.045Z,20.70
2019-04-13T16:43:20.116Z,22.30
2019-04-13T16:45:53.091Z,22.50
2019-04-13T16:48:29.553Z,20.40
2019-04-13T16:51:16.171Z,22.33
2019-04-13T16:54:03.302Z,23.23
2019-04-13T16:56:45.852Z,24.00
2019-04-13T16:59:18.715Z,20.00
2019-04-13T17:02:00.719Z,19.50
2019-04-13T17:04:37.936Z,19.30
2019-04-13T17:07:06.993Z,15.47
2019-04-13T17:09:35.614Z,17.03
2019-04-13T17:12:17.228Z,18.40
2019-04-13T17:14:34.714Z,18.53
2019-04-13T17:17:03.522Z,19.80
2019-04-13T17:19:36.737Z,19.63
2019-04-13T17:22:17.368Z,21.30
2019-04-13T17:24:51.030Z,18.47
2019-04-13T17:27:37.843Z,18.60
2019-04-13T17:30:19.739Z,17.07
2019-04-13T17:32:56.311Z,18.10
2019-04-13T17:35:26.474Z,19.40
2019-04-13T17:37:55.374Z,19.20
2019-04-13T17:40:26.155Z,19.83
2019-04-13T17:42:57.403Z,21.73
2019-04-13T17:45:37.613Z,19.80
2019-04-13T17:48:25.318Z,21.73
2019-04-13T17:50:58.431Z,21.40
2019-04-13T17:53:43.640Z,20.00
2019-04-13T17:56:17.611Z,24.17
2019-04-13T17:58:53.453Z,23.03
2019-04-13T18:01:39.735Z,24.37
2019-04-13T18:04:26.754Z,25.80
2019-04-13T18:07:03.119Z,24.90
2019-04-13T18:09:34.985Z,23.57
2019-04-13T18:12:05.637Z,25.37
2019-04-13T18:14:36.159Z,22.40
2019-04-13T18:17:09.441Z,25.20
2019-04-13T18:19:37.995Z,24.03
2019-04-13T18:22:07.846Z,26.13
2019-04-13T18:24:36.528Z,26.53
2019-04-13T18:27:05.099Z,28.73
2019-04-13T18:29:34.923Z,25.07
2019-04-13T18:32:05.128Z,24.80
2019-04-13T18:34:33.986Z,27.97
2019-04-13T18:37:03.602Z,27.70
2019-04-13T18:39:33.654Z,25.70
2019-04-13T18:42:03.465Z,27.20
2019-04-13T18:44:32.601Z,27.77
2019-04-13T18:47:01.446Z,27.77
2019-04-13T18:49:30.319Z,25.40
2019-04-13T18:51:58.977Z,32.23
2019-04-13T18:54:28.012Z,29.00
2019-04-13T18:56:58.172Z,31.17
2019-04-13T18:59:27.309Z,27.80
2019-04-13T19:01:56.037Z,28.40
2019-04-13T19:04:24.941Z,30.50
2019-04-13T19:06:53.502Z,29.70
2019-04-13T19:09:22.395Z,30.00
2019-04-13T19:11:51.352Z,30.33
2019-04-13T19:14:20.323Z,31.40
2019-04-13T19:16:49.238Z,29.27
2019-04-13T19:19:18.068Z,27.80
2019-04-13T19:21:46.947Z,26.70
2019-04-13T19:24:15.532Z,27.60
2019-04-13T19:26:44.430Z,28.90
2019-04-13T19:29:12.964Z,30.80
2019-04-13T19:31:41.459Z,27.47
2019-04-13T19:34:09.985Z,26.77
2019-04-13T19:36:38.576Z,27.10
2019-04-13T19:39:07.513Z,30.07
2019-04-13T19:41:36.327Z,27.77
2019-04-13T19:44:05.428Z,32.60
2019-04-13T19:46:33.987Z,28.80
2019-04-13T19:49:02.520Z,31.27
2019-04-13T19:51:32.712Z,30.33
2019-04-13T19:54:03.175Z,29.80
2019-04-13T19:56:32.077Z,28.80
2019-04-13T19:59:00.590Z,33.07
2019-04-13T20:01:29.829Z,30.67
2019-04-13T20:03:58.546Z,30.37
2019-04-13T20:06:27.181Z,31.80
2019-04-13T20:08:56.064Z,30.67
2019-04-13T20:11:24.960Z,28.07
2019-04-13T20:13:59.371Z,29.13
2019-04-13T20:16:23.848Z,29.67
2019-04-13T20:18:52.360Z,28.40
2019-04-13T20:21:20.854Z,27.17
2019-04-13T20:23:49.792Z,30.60
2019-04-13T20:26:18.689Z,32.57
2019-04-13T20:28:48.289Z,28.43
2019-04-13T20:31:18.226Z,29.87
2019-04-13T20:33:48.147Z,27.40
2019-04-13T20:36:20.862Z,28.67
2019-04-13T20:38:47.714Z,33.70
2019-04-13T20:41:33.562Z,31.20
2019-04-13T20:44:02.889Z,29.80
2019-04-13T20:46:25.838Z,32.20
2019-04-13T20:48:55.453Z,32.07
2019-04-13T20:51:24.117Z,30.07
2019-04-13T20:53:52.999Z,30.37
2019-04-13T20:56:25.075Z,29.70
2019-04-13T20:58:55.352Z,27.97
2019-04-13T21:01:24.056Z,27.57
2019-04-13T21:03:53.422Z,30.87
2019-04-13T21:06:22.468Z,30.47
2019-04-13T21:08:54.185Z,39.77
2019-04-13T21:11:21.598Z,35.83
2019-04-13T21:14:01.202Z,28.80
2019-04-13T21:16:23.840Z,28.83
2019-04-13T21:18:53.499Z,32.77
2019-04-13T21:21:22.149Z,27.97
2019-04-13T21:23:51.768Z,26.10
2019-04-13T21:26:23.753Z,31.17
2019-04-13T21:28:51.537Z,29.93
2019-04-13T21:31:20.238Z,23.87
2019-04-13T21:33:49.662Z,28.83
2019-04-13T21:36:19.439Z,72.93
2019-04-13T21:38:49.462Z,29.67
2019-04-13T21:41:18.056Z,23.80
2019-04-13T21:43:47.681Z,27.17
2019-04-13T21:46:17.246Z,29.27
2019-04-13T21:48:46.233Z,25.77
2019-04-13T21:51:33.560Z,28.17
2019-04-13T21:54:03.964Z,27.87
2019-04-13T21:56:32.559Z,27.50
2019-04-13T21:59:01.851Z,26.57
2019-04-13T22:01:41.209Z,28.87
2019-04-13T22:04:10.939Z,26.90
2019-04-13T22:06:40.941Z,28.80
2019-04-13T22:09:11.052Z,31.90
2019-04-13T22:11:40.847Z,26.40
2019-04-13T22:14:19.848Z,26.67
2019-04-13T22:16:41.390Z,27.50
2019-04-13T22:19:09.998Z,32.80
2019-04-13T22:21:39.331Z,26.20
2019-04-13T22:24:09.160Z,27.43
2019-04-13T22:26:39.211Z,27.40
2019-04-13T22:29:22.226Z,27.57
2019-04-13T22:32:01.393Z,29.60
2019-04-13T22:34:52.405Z,27.23
2019-04-13T22:37:20.772Z,28.23
2019-04-13T22:39:49.492Z,28.80
2019-04-13T22:42:18.753Z,29.10
2019-04-13T22:44:56.216Z,29.17
2019-04-13T22:47:19.183Z,24.97
2019-04-13T22:50:02.695Z,30.60
2019-04-13T22:52:45.327Z,31.43
2019-04-13T22:55:18.731Z,28.73
2019-04-13T22:57:48.179Z,28.80
2019-04-13T23:00:21.641Z,26.53
2019-04-13T23:02:51.991Z,27.50
2019-04-13T23:05:22.063Z,27.13
2019-04-13T23:07:50.780Z,28.67
2019-04-13T23:10:20.410Z,29.70
2019-04-13T23:12:48.997Z,29.87
2019-04-13T23:15:24.377Z,29.33
2019-04-13T23:17:48.405Z,30.40
2019-04-13T23:20:17.060Z,29.93
2019-04-13T23:22:45.605Z,27.67
2019-04-13T23:25:15.763Z,31.83
2019-04-13T23:27:45.923Z,30.23
2019-04-13T23:30:16.128Z,31.47
2019-04-13T23:32:44.689Z,30.03
2019-04-13T23:35:14.740Z,28.27
2019-04-13T23:37:43.359Z,27.90
2019-04-13T23:40:13.404Z,30.83
2019-04-13T23:42:42.548Z,25.80
2019-04-13T23:45:19.399Z,28.87
2019-04-13T23:47:42.984Z,32.13
2019-04-13T23:50:11.659Z,30.10
2019-04-13T23:52:41.487Z,28.83
2019-04-13T23:55:10.131Z,31.80
2019-04-13T23:57:46.459Z,32.10
